sensor_id;sensor_type;location;lat;lon;timestamp;pressure;altitude;pressure_sealevel;temperature;humidity
80139;BME280;69467;59.842;17.604;2023-04-24T00:02:07;99854.63;;;4.50;76.36
80139;BME280;69467;59.842;17.604;2023-04-24T00:04:36;99859.25;;;4.50;76.39
80139;BME280;69467;59.842;17.604;2023-04-24T00:07:05;99870.09;;;4.50;76.73
80139;BME280;69467;59.842;17.604;2023-04-24T00:09:32;99873.03;;;4.48;76.33
80139;BME280;69467;59.842;17.604;2023-04-24T00:11:57;99871.97;;;4.49;76.27
80139;BME280;69467;59.842;17.604;2023-04-24T00:14:23;99865.25;;;4.52;76.27
80139;BME280;69467;59.842;17.604;2023-04-24T00:16:48;99866.88;;;4.53;76.36
80139;BME280;69467;59.842;17.604;2023-04-24T00:19:14;99870.66;;;4.52;76.60
80139;BME280;69467;59.842;17.604;2023-04-24T00:21:39;99861.69;;;4.51;76.14
80139;BME280;69467;59.842;17.604;2023-04-24T00:24:06;99866.06;;;4.53;75.77
80139;BME280;69467;59.842;17.604;2023-04-24T00:26:31;99871.16;;;4.49;75.73
80139;BME280;69467;59.842;17.604;2023-04-24T00:28:57;99876.81;;;4.47;75.83
80139;BME280;69467;59.842;17.604;2023-04-24T00:31:22;99885.19;;;4.46;75.88
80139;BME280;69467;59.842;17.604;2023-04-24T00:33:47;99885.06;;;4.41;76.14
80139;BME280;69467;59.842;17.604;2023-04-24T00:36:13;99883.69;;;4.38;76.24
80139;BME280;69467;59.842;17.604;2023-04-24T00:38:38;99886.38;;;4.38;76.19
80139;BME280;69467;59.842;17.604;2023-04-24T00:41:04;99897.97;;;4.33;76.41
80139;BME280;69467;59.842;17.604;2023-04-24T00:43:29;99894.91;;;4.30;76.46
80139;BME280;69467;59.842;17.604;2023-04-24T00:45:55;99908.13;;;4.26;76.74
80139;BME280;69467;59.842;17.604;2023-04-24T00:48:21;99910.25;;;4.24;76.46
80139;BME280;69467;59.842;17.604;2023-04-24T00:50:46;99909.44;;;4.24;76.69
80139;BME280;69467;59.842;17.604;2023-04-24T00:53:12;99916.38;;;4.19;76.63
80139;BME280;69467;59.842;17.604;2023-04-24T00:55:37;99916.16;;;4.21;76.94
80139;BME280;69467;59.842;17.604;2023-04-24T00:58:02;99917.78;;;4.22;76.89
80139;BME280;69467;59.842;17.604;2023-04-24T01:00:29;99928.88;;;4.21;77.21
80139;BME280;69467;59.842;17.604;2023-04-24T01:02:55;99928.88;;;4.21;77.03
80139;BME280;69467;59.842;17.604;2023-04-24T01:05:20;99923.22;;;4.22;77.37
80139;BME280;69467;59.842;17.604;2023-04-24T01:07:46;99916.97;;;4.22;77.76
80139;BME280;69467;59.842;17.604;2023-04-24T01:10:14;99919.19;;;4.25;77.83
80139;BME280;69467;59.842;17.604;2023-04-24T01:12:40;99912.72;;;4.26;77.96
80139;BME280;69467;59.842;17.604;2023-04-24T01:15:06;99921.91;;;4.25;77.48
80139;BME280;69467;59.842;17.604;2023-04-24T01:17:31;99924.59;;;4.25;77.25
80139;BME280;69467;59.842;17.604;2023-04-24T01:19:58;99924.41;;;4.26;77.00
80139;BME280;69467;59.842;17.604;2023-04-24T01:22:25;99921.69;;;4.26;77.37
80139;BME280;69467;59.842;17.604;2023-04-24T01:24:51;99919.44;;;4.23;77.27
80139;BME280;69467;59.842;17.604;2023-04-24T01:27:17;99931.59;;;4.21;77.34
80139;BME280;69467;59.842;17.604;2023-04-24T01:29:42;99930.19;;;4.18;77.34
80139;BME280;69467;59.842;17.604;2023-04-24T01:32:08;99930.88;;;4.13;77.38
80139;BME280;69467;59.842;17.604;2023-04-24T01:34:34;99938.44;;;4.11;77.24
80139;BME280;69467;59.842;17.604;2023-04-24T01:36:59;99947.88;;;4.09;77.12
80139;BME280;69467;59.842;17.604;2023-04-24T01:39:25;99952.72;;;4.07;77.41
80139;BME280;69467;59.842;17.604;2023-04-24T01:41:54;99961.91;;;4.06;77.70
80139;BME280;69467;59.842;17.604;2023-04-24T01:44:19;99950.94;;;4.00;77.27
80139;BME280;69467;59.842;17.604;2023-04-24T01:46:45;99954.13;;;3.97;77.38
80139;BME280;69467;59.842;17.604;2023-04-24T01:49:11;99951.41;;;3.97;77.74
80139;BME280;69467;59.842;17.604;2023-04-24T01:51:36;99952.72;;;3.95;78.43
80139;BME280;69467;59.842;17.604;2023-04-24T01:54:02;99955.22;;;3.96;78.28
80139;BME280;69467;59.842;17.604;2023-04-24T01:56:29;99966.25;;;3.95;78.35
80139;BME280;69467;59.842;17.604;2023-04-24T01:58:56;99974.38;;;3.95;78.77
80139;BME280;69467;59.842;17.604;2023-04-24T02:01:23;99978.75;;;3.96;78.77
80139;BME280;69467;59.842;17.604;2023-04-24T02:03:49;99974.16;;;3.96;78.55
80139;BME280;69467;59.842;17.604;2023-04-24T02:06:15;99980.03;;;3.93;78.18
80139;BME280;69467;59.842;17.604;2023-04-24T02:08:41;99981.59;;;3.89;78.17
80139;BME280;69467;59.842;17.604;2023-04-24T02:11:06;99977.22;;;3.88;78.27
80139;BME280;69467;59.842;17.604;2023-04-24T02:13:33;99985.72;;;3.92;78.28
80139;BME280;69467;59.842;17.604;2023-04-24T02:15:58;99976.97;;;3.90;78.09
80139;BME280;69467;59.842;17.604;2023-04-24T02:18:24;99979.94;;;3.88;77.99
80139;BME280;69467;59.842;17.604;2023-04-24T02:20:49;99983.69;;;3.87;77.80
80139;BME280;69467;59.842;17.604;2023-04-24T02:23:15;99980.41;;;3.85;77.42
80139;BME280;69467;59.842;17.604;2023-04-24T02:25:40;99977.13;;;3.83;77.05
80139;BME280;69467;59.842;17.604;2023-04-24T02:28:06;99967.78;;;3.79;77.16
80139;BME280;69467;59.842;17.604;2023-04-24T02:30:31;99974.06;;;3.79;77.14
80139;BME280;69467;59.842;17.604;2023-04-24T02:32:57;99960.72;;;3.78;77.31
80139;BME280;69467;59.842;17.604;2023-04-24T02:35:22;99966.13;;;3.78;77.29
80139;BME280;69467;59.842;17.604;2023-04-24T02:37:48;99963.44;;;3.78;77.10
80139;BME280;69467;59.842;17.604;2023-04-24T02:40:13;99958.25;;;3.76;76.92
80139;BME280;69467;59.842;17.604;2023-04-24T02:42:38;99960.41;;;3.74;76.78
80139;BME280;69467;59.842;17.604;2023-04-24T02:45:04;99954.84;;;3.69;76.91
80139;BME280;69467;59.842;17.604;2023-04-24T02:47:30;99961.34;;;3.68;76.98
80139;BME280;69467;59.842;17.604;2023-04-24T02:49:55;99968.25;;;3.64;77.01
80139;BME280;69467;59.842;17.604;2023-04-24T02:52:21;99968.50;;;3.62;76.93
80139;BME280;69467;59.842;17.604;2023-04-24T02:54:46;99974.38;;;3.59;77.10
80139;BME280;69467;59.842;17.604;2023-04-24T02:57:12;99966.25;;;3.59;77.19
80139;BME280;69467;59.842;17.604;2023-04-24T02:59:37;99963.53;;;3.59;77.09
80139;BME280;69467;59.842;17.604;2023-04-24T03:02:03;99973.31;;;3.60;77.16
80139;BME280;69467;59.842;17.604;2023-04-24T03:04:28;99970.63;;;3.60;77.29
80139;BME280;69467;59.842;17.604;2023-04-24T03:06:53;99979.59;;;3.61;77.38
80139;BME280;69467;59.842;17.604;2023-04-24T03:09:21;99978.16;;;3.58;77.17
80139;BME280;69467;59.842;17.604;2023-04-24T03:11:46;99969.44;;;3.56;77.27
80139;BME280;69467;59.842;17.604;2023-04-24T03:14:12;99967.19;;;3.53;77.37
80139;BME280;69467;59.842;17.604;2023-04-24T03:16:37;99977.22;;;3.52;77.66
80139;BME280;69467;59.842;17.604;2023-04-24T03:19:03;99973.69;;;3.52;77.45
80139;BME280;69467;59.842;17.604;2023-04-24T03:21:28;99981.22;;;3.50;77.48
80139;BME280;69467;59.842;17.604;2023-04-24T03:23:54;100002.88;;;3.50;77.12
80139;BME280;69467;59.842;17.604;2023-04-24T03:26:20;100002.25;;;3.48;77.09
80139;BME280;69467;59.842;17.604;2023-04-24T03:28:45;100001.22;;;3.49;77.21
80139;BME280;69467;59.842;17.604;2023-04-24T03:31:11;100001.22;;;3.49;76.96
80139;BME280;69467;59.842;17.604;2023-04-24T03:33:36;100007.22;;;3.51;77.12
80139;BME280;69467;59.842;17.604;2023-04-24T03:36:02;100008.28;;;3.50;77.30
80139;BME280;69467;59.842;17.604;2023-04-24T03:38:27;100000.97;;;3.50;77.51
80139;BME280;69467;59.842;17.604;2023-04-24T03:40:53;99999.69;;;3.53;77.35
80139;BME280;69467;59.842;17.604;2023-04-24T03:43:18;99996.97;;;3.53;77.13
80139;BME280;69467;59.842;17.604;2023-04-24T03:45:43;99996.97;;;3.53;77.00
80139;BME280;69467;59.842;17.604;2023-04-24T03:48:09;99996.41;;;3.51;77.08
80139;BME280;69467;59.842;17.604;2023-04-24T03:50:34;100005.34;;;3.51;76.81
80139;BME280;69467;59.842;17.604;2023-04-24T03:53:00;100011.59;;;3.52;76.58
80139;BME280;69467;59.842;17.604;2023-04-24T03:55:25;100020.16;;;3.49;76.75
80139;BME280;69467;59.842;17.604;2023-04-24T03:57:51;100024.97;;;3.47;76.87
80139;BME280;69467;59.842;17.604;2023-04-24T04:00:16;100028.16;;;3.44;76.81
80139;BME280;69467;59.842;17.604;2023-04-24T04:02:41;100040.03;;;3.43;77.08
80139;BME280;69467;59.842;17.604;2023-04-24T04:05:07;100039.69;;;3.39;76.94
80139;BME280;69467;59.842;17.604;2023-04-24T04:07:33;100039.91;;;3.37;76.94
80139;BME280;69467;59.842;17.604;2023-04-24T04:09:59;100038.88;;;3.38;77.20
80139;BME280;69467;59.842;17.604;2023-04-24T04:12:24;100033.91;;;3.35;77.09
80139;BME280;69467;59.842;17.604;2023-04-24T04:14:50;100034.75;;;3.36;77.23
80139;BME280;69467;59.842;17.604;2023-04-24T04:17:15;100042.63;;;3.37;77.20
80139;BME280;69467;59.842;17.604;2023-04-24T04:19:40;100050.75;;;3.37;77.26
80139;BME280;69467;59.842;17.604;2023-04-24T04:22:06;100050.97;;;3.36;77.12
80139;BME280;69467;59.842;17.604;2023-04-24T04:24:33;100060.97;;;3.35;76.99
80139;BME280;69467;59.842;17.604;2023-04-24T04:26:59;100072.47;;;3.31;77.24
80139;BME280;69467;59.842;17.604;2023-04-24T04:29:25;100083.09;;;3.32;77.12
80139;BME280;69467;59.842;17.604;2023-04-24T04:31:51;100083.66;;;3.34;77.04
80139;BME280;69467;59.842;17.604;2023-04-24T04:34:17;100086.97;;;3.36;77.36
80139;BME280;69467;59.842;17.604;2023-04-24T04:36:43;100085.19;;;3.30;77.38
80139;BME280;69467;59.842;17.604;2023-04-24T04:39:09;100086.34;;;3.22;77.77
80139;BME280;69467;59.842;17.604;2023-04-24T04:41:34;100091.53;;;3.24;77.92
80139;BME280;69467;59.842;17.604;2023-04-24T04:44:01;100098.00;;;3.23;77.78
80139;BME280;69467;59.842;17.604;2023-04-24T04:46:30;100103.63;;;3.21;77.68
80139;BME280;69467;59.842;17.604;2023-04-24T04:48:58;100104.44;;;3.22;77.69
80139;BME280;69467;59.842;17.604;2023-04-24T04:51:23;100111.50;;;3.23;77.74
80139;BME280;69467;59.842;17.604;2023-04-24T04:53:48;100108.56;;;3.25;77.65
80139;BME280;69467;59.842;17.604;2023-04-24T04:56:14;100117.31;;;3.27;77.84
80139;BME280;69467;59.842;17.604;2023-04-24T04:58:40;100114.97;;;3.30;77.81
80139;BME280;69467;59.842;17.604;2023-04-24T05:01:05;100118.72;;;3.29;77.36
80139;BME280;69467;59.842;17.604;2023-04-24T05:03:31;100117.22;;;3.33;77.75
80139;BME280;69467;59.842;17.604;2023-04-24T05:05:57;100117.22;;;3.33;77.79
80139;BME280;69467;59.842;17.604;2023-04-24T05:08:23;100116.75;;;3.36;77.89
80139;BME280;69467;59.842;17.604;2023-04-24T05:10:48;100113.00;;;3.37;77.72
80139;BME280;69467;59.842;17.604;2023-04-24T05:13:14;100120.06;;;3.38;77.76
80139;BME280;69467;59.842;17.604;2023-04-24T05:15:39;100128.75;;;3.41;77.92
80139;BME280;69467;59.842;17.604;2023-04-24T05:18:04;100133.97;;;3.42;78.09
80139;BME280;69467;59.842;17.604;2023-04-24T05:20:30;100132.56;;;3.40;77.91
80139;BME280;69467;59.842;17.604;2023-04-24T05:22:55;100139.22;;;3.37;77.83
80139;BME280;69467;59.842;17.604;2023-04-24T05:25:21;100152.19;;;3.35;77.95
80139;BME280;69467;59.842;17.604;2023-04-24T05:27:46;100155.31;;;3.32;77.85
80139;BME280;69467;59.842;17.604;2023-04-24T05:30:12;100155.31;;;3.32;78.04
80139;BME280;69467;59.842;17.604;2023-04-24T05:32:37;100162.88;;;3.30;78.14
80139;BME280;69467;59.842;17.604;2023-04-24T05:35:03;100150.59;;;3.27;77.94
80139;BME280;69467;59.842;17.604;2023-04-24T05:37:29;100162.03;;;3.29;78.12
80139;BME280;69467;59.842;17.604;2023-04-24T05:39:54;100160.97;;;3.30;78.14
80139;BME280;69467;59.842;17.604;2023-04-24T05:42:20;100163.91;;;3.29;78.33
80139;BME280;69467;59.842;17.604;2023-04-24T05:44:45;100168.03;;;3.31;78.50
80139;BME280;69467;59.842;17.604;2023-04-24T05:47:10;100169.47;;;3.34;78.37
80139;BME280;69467;59.842;17.604;2023-04-24T05:49:36;100165.09;;;3.33;78.28
80139;BME280;69467;59.842;17.604;2023-04-24T05:52:01;100169.00;;;3.37;78.10
80139;BME280;69467;59.842;17.604;2023-04-24T05:54:29;100167.50;;;3.41;78.20
80139;BME280;69467;59.842;17.604;2023-04-24T05:56:54;100175.75;;;3.46;78.24
80139;BME280;69467;59.842;17.604;2023-04-24T05:59:20;100180.50;;;3.51;78.08
80139;BME280;69467;59.842;17.604;2023-04-24T06:01:46;100177.78;;;3.51;78.17
80139;BME280;69467;59.842;17.604;2023-04-24T06:04:12;100169.19;;;3.54;78.13
80139;BME280;69467;59.842;17.604;2023-04-24T06:06:38;100171.47;;;3.57;78.00
80139;BME280;69467;59.842;17.604;2023-04-24T06:09:03;100173.69;;;3.60;77.83
80139;BME280;69467;59.842;17.604;2023-04-24T06:11:29;100168.28;;;3.60;77.95
80139;BME280;69467;59.842;17.604;2023-04-24T06:13:55;100163.47;;;3.62;78.03
80139;BME280;69467;59.842;17.604;2023-04-24T06:16:20;100162.63;;;3.62;77.80
80139;BME280;69467;59.842;17.604;2023-04-24T06:18:46;100162.19;;;3.65;78.11
80139;BME280;69467;59.842;17.604;2023-04-24T06:21:12;100163.59;;;3.67;78.21
80139;BME280;69467;59.842;17.604;2023-04-24T06:23:37;100167.97;;;3.68;77.89
80139;BME280;69467;59.842;17.604;2023-04-24T06:26:03;100169.16;;;3.73;77.82
80139;BME280;69467;59.842;17.604;2023-04-24T06:28:29;100158.31;;;3.73;78.44
80139;BME280;69467;59.842;17.604;2023-04-24T06:30:54;100156.91;;;3.70;78.69
80139;BME280;69467;59.842;17.604;2023-04-24T06:33:19;100158.06;;;3.62;79.32
80139;BME280;69467;59.842;17.604;2023-04-24T06:35:45;100159.72;;;3.63;78.72
80139;BME280;69467;59.842;17.604;2023-04-24T06:38:10;100163.59;;;3.67;78.52
80139;BME280;69467;59.842;17.604;2023-04-24T06:40:36;100171.97;;;3.66;78.91
80139;BME280;69467;59.842;17.604;2023-04-24T06:43:02;100165.88;;;3.70;78.49
80139;BME280;69467;59.842;17.604;2023-04-24T06:45:28;100159.53;;;3.77;78.59
80139;BME280;69467;59.842;17.604;2023-04-24T06:47:54;100161.38;;;3.76;78.57
80139;BME280;69467;59.842;17.604;2023-04-24T06:50:20;100159.03;;;3.80;77.91
80139;BME280;69467;59.842;17.604;2023-04-24T06:52:45;100170.72;;;3.80;77.73
80139;BME280;69467;59.842;17.604;2023-04-24T06:55:11;100172.47;;;3.75;77.90
80139;BME280;69467;59.842;17.604;2023-04-24T06:57:36;100173.63;;;3.79;78.00
80139;BME280;69467;59.842;17.604;2023-04-24T07:00:03;100183.56;;;3.85;78.03
80139;BME280;69467;59.842;17.604;2023-04-24T07:02:30;100179.56;;;3.87;78.08
80139;BME280;69467;59.842;17.604;2023-04-24T07:04:55;100173.31;;;3.87;77.88
80139;BME280;69467;59.842;17.604;2023-04-24T07:07:22;100178.88;;;3.92;77.93
80139;BME280;69467;59.842;17.604;2023-04-24T07:09:49;100176.16;;;3.92;78.30
80139;BME280;69467;59.842;17.604;2023-04-24T07:12:16;100178.97;;;3.85;78.20
80139;BME280;69467;59.842;17.604;2023-04-24T07:14:42;100179.91;;;3.79;78.10
80139;BME280;69467;59.842;17.604;2023-04-24T07:17:08;100179.53;;;3.76;78.74
80139;BME280;69467;59.842;17.604;2023-04-24T07:19:34;100179.19;;;3.84;78.34
80139;BME280;69467;59.842;17.604;2023-04-24T07:22:00;100182.63;;;3.91;78.39
80139;BME280;69467;59.842;17.604;2023-04-24T07:24:26;100183.84;;;3.95;78.57
80139;BME280;69467;59.842;17.604;2023-04-24T07:26:52;100194.63;;;3.83;78.55
80139;BME280;69467;59.842;17.604;2023-04-24T07:29:18;100205.59;;;3.89;78.44
80139;BME280;69467;59.842;17.604;2023-04-24T07:31:45;100206.44;;;3.89;78.15
80139;BME280;69467;59.842;17.604;2023-04-24T07:34:10;100205.84;;;3.87;78.39
80139;BME280;69467;59.842;17.604;2023-04-24T07:36:35;100207.00;;;3.91;77.91
80139;BME280;69467;59.842;17.604;2023-04-24T07:39:03;100209.72;;;3.91;78.19
80139;BME280;69467;59.842;17.604;2023-04-24T07:41:29;100224.47;;;3.95;77.99
80139;BME280;69467;59.842;17.604;2023-04-24T07:43:54;100227.06;;;4.02;78.17
80139;BME280;69467;59.842;17.604;2023-04-24T07:46:20;100238.03;;;3.95;78.47
80139;BME280;69467;59.842;17.604;2023-04-24T07:48:46;100241.22;;;4.04;77.85
80139;BME280;69467;59.842;17.604;2023-04-24T07:51:14;100248.19;;;4.12;77.65
80139;BME280;69467;59.842;17.604;2023-04-24T07:53:40;100263.16;;;4.14;77.31
80139;BME280;69467;59.842;17.604;2023-04-24T07:56:06;100263.78;;;4.16;77.67
80139;BME280;69467;59.842;17.604;2023-04-24T07:58:31;100267.31;;;4.17;77.62
80139;BME280;69467;59.842;17.604;2023-04-24T08:00:57;100267.53;;;4.15;77.55
80139;BME280;69467;59.842;17.604;2023-04-24T08:03:22;100266.84;;;4.20;77.39
80139;BME280;69467;59.842;17.604;2023-04-24T08:05:47;100263.91;;;4.22;76.98
80139;BME280;69467;59.842;17.604;2023-04-24T08:08:13;100271.44;;;4.19;77.44
80139;BME280;69467;59.842;17.604;2023-04-24T08:10:38;100270.75;;;4.24;77.01
80139;BME280;69467;59.842;17.604;2023-04-24T08:13:04;100275.19;;;4.18;76.79
80139;BME280;69467;59.842;17.604;2023-04-24T08:15:30;100276.47;;;4.16;76.32
80139;BME280;69467;59.842;17.604;2023-04-24T08:17:56;100276.72;;;4.14;76.60
80139;BME280;69467;59.842;17.604;2023-04-24T08:20:22;100284.34;;;4.06;77.21
80139;BME280;69467;59.842;17.604;2023-04-24T08:22:47;100283.59;;;3.98;78.67
80139;BME280;69467;59.842;17.604;2023-04-24T08:25:13;100286.06;;;3.88;79.67
80139;BME280;69467;59.842;17.604;2023-04-24T08:27:39;100291.09;;;3.84;79.37
80139;BME280;69467;59.842;17.604;2023-04-24T08:30:06;100280.88;;;3.86;79.49
80139;BME280;69467;59.842;17.604;2023-04-24T08:32:31;100291.91;;;3.85;80.57
80139;BME280;69467;59.842;17.604;2023-04-24T08:34:58;100290.56;;;3.94;79.99
80139;BME280;69467;59.842;17.604;2023-04-24T08:37:25;100291.88;;;4.03;79.91
80139;BME280;69467;59.842;17.604;2023-04-24T08:39:51;100295.78;;;4.08;79.77
80139;BME280;69467;59.842;17.604;2023-04-24T08:42:18;100290.81;;;4.05;80.02
80139;BME280;69467;59.842;17.604;2023-04-24T08:44:44;100297.53;;;4.02;80.02
80139;BME280;69467;59.842;17.604;2023-04-24T08:47:11;100299.34;;;3.90;80.50
80139;BME280;69467;59.842;17.604;2023-04-24T08:49:37;100303.50;;;3.92;80.37
80139;BME280;69467;59.842;17.604;2023-04-24T08:52:04;100299.28;;;3.96;80.21
80139;BME280;69467;59.842;17.604;2023-04-24T08:54:31;100307.72;;;3.88;80.79
80139;BME280;69467;59.842;17.604;2023-04-24T08:56:59;100302.31;;;3.88;80.78
80139;BME280;69467;59.842;17.604;2023-04-24T08:59:30;100308.09;;;3.92;80.90
80139;BME280;69467;59.842;17.604;2023-04-24T09:01:56;100304.91;;;3.95;80.76
80139;BME280;69467;59.842;17.604;2023-04-24T09:04:23;100306.28;;;4.04;80.03
80139;BME280;69467;59.842;17.604;2023-04-24T09:06:55;100316.44;;;4.09;78.97
80139;BME280;69467;59.842;17.604;2023-04-24T09:09:22;100318.16;;;4.03;79.21
80139;BME280;69467;59.842;17.604;2023-04-24T09:11:49;100334.19;;;4.05;79.24
80139;BME280;69467;59.842;17.604;2023-04-24T09:14:15;100336.66;;;4.06;78.80
80139;BME280;69467;59.842;17.604;2023-04-24T09:16:41;100318.16;;;4.03;78.98
80139;BME280;69467;59.842;17.604;2023-04-24T09:19:06;100321.00;;;4.08;79.09
80139;BME280;69467;59.842;17.604;2023-04-24T09:21:33;100320.94;;;4.15;78.79
80139;BME280;69467;59.842;17.604;2023-04-24T09:24:00;100322.25;;;4.24;78.54
80139;BME280;69467;59.842;17.604;2023-04-24T09:26:29;100325.22;;;4.34;78.49
80139;BME280;69467;59.842;17.604;2023-04-24T09:28:56;100316.78;;;4.43;78.14
80139;BME280;69467;59.842;17.604;2023-04-24T09:31:21;100311.47;;;4.48;78.09
80139;BME280;69467;59.842;17.604;2023-04-24T09:33:59;100306.31;;;4.58;77.53
80139;BME280;69467;59.842;17.604;2023-04-24T09:36:32;100319.31;;;4.68;77.19
80139;BME280;69467;59.842;17.604;2023-04-24T09:39:02;100310.94;;;4.70;76.86
80139;BME280;69467;59.842;17.604;2023-04-24T09:41:28;100319.16;;;4.63;76.69
80139;BME280;69467;59.842;17.604;2023-04-24T09:43:57;100315.53;;;4.57;76.48
80139;BME280;69467;59.842;17.604;2023-04-24T09:46:30;100319.72;;;4.53;76.32
80139;BME280;69467;59.842;17.604;2023-04-24T09:49:12;100327.88;;;4.53;76.27
80139;BME280;69467;59.842;17.604;2023-04-24T09:51:38;100318.47;;;4.56;76.78
80139;BME280;69467;59.842;17.604;2023-04-24T09:54:04;100324.84;;;4.61;76.38
80139;BME280;69467;59.842;17.604;2023-04-24T09:56:35;100323.41;;;4.59;75.71
80139;BME280;69467;59.842;17.604;2023-04-24T09:59:07;100323.06;;;4.55;75.43
80139;BME280;69467;59.842;17.604;2023-04-24T10:01:33;100318.91;;;4.53;75.69
80139;BME280;69467;59.842;17.604;2023-04-24T10:03:59;100325.16;;;4.53;75.59
80139;BME280;69467;59.842;17.604;2023-04-24T10:08:02;100333.34;;;4.65;76.13
80139;BME280;69467;59.842;17.604;2023-04-24T10:10:29;100328.88;;;4.71;75.97
80139;BME280;69467;59.842;17.604;2023-04-24T10:12:55;100329.81;;;4.64;75.96
80139;BME280;69467;59.842;17.604;2023-04-24T10:15:21;100334.19;;;4.65;76.03
80139;BME280;69467;59.842;17.604;2023-04-24T10:17:50;100327.34;;;4.75;75.92
80139;BME280;69467;59.842;17.604;2023-04-24T10:20:21;100333.50;;;4.82;76.01
80139;BME280;69467;59.842;17.604;2023-04-24T10:22:51;100330.91;;;4.87;75.34
80139;BME280;69467;59.842;17.604;2023-04-24T10:25:21;100326.91;;;5.02;74.86
80139;BME280;69467;59.842;17.604;2023-04-24T10:27:48;100330.34;;;5.09;74.08
80139;BME280;69467;59.842;17.604;2023-04-24T10:30:14;100318.78;;;5.02;74.24
80139;BME280;69467;59.842;17.604;2023-04-24T10:32:40;100317.22;;;5.06;74.08
80139;BME280;69467;59.842;17.604;2023-04-24T10:35:07;100325.59;;;4.92;74.66
80139;BME280;69467;59.842;17.604;2023-04-24T10:37:42;100318.06;;;4.94;75.26
80139;BME280;69467;59.842;17.604;2023-04-24T10:40:09;100317.56;;;4.97;74.66
80139;BME280;69467;59.842;17.604;2023-04-24T10:42:35;100312.97;;;4.98;74.53
80139;BME280;69467;59.842;17.604;2023-04-24T10:45:05;100301.31;;;5.09;74.33
80139;BME280;69467;59.842;17.604;2023-04-24T10:47:39;100302.81;;;5.17;73.51
80139;BME280;69467;59.842;17.604;2023-04-24T10:50:09;100305.78;;;5.15;73.44
80139;BME280;69467;59.842;17.604;2023-04-24T10:52:47;100301.16;;;5.16;73.93
80139;BME280;69467;59.842;17.604;2023-04-24T10:55:14;100299.41;;;5.22;73.65
80139;BME280;69467;59.842;17.604;2023-04-24T10:58:01;100294.94;;;5.27;73.50
80139;BME280;69467;59.842;17.604;2023-04-24T11:00:26;100300.56;;;5.26;73.24
80139;BME280;69467;59.842;17.604;2023-04-24T11:02:52;100292.91;;;5.35;72.62
80139;BME280;69467;59.842;17.604;2023-04-24T11:05:20;100296.22;;;5.25;72.60
80139;BME280;69467;59.842;17.604;2023-04-24T11:08:14;100301.66;;;5.13;72.84
80139;BME280;69467;59.842;17.604;2023-04-24T11:10:45;100304.81;;;5.10;72.91
80139;BME280;69467;59.842;17.604;2023-04-24T11:13:14;100309.44;;;5.09;73.33
80139;BME280;69467;59.842;17.604;2023-04-24T11:15:41;100330.78;;;4.94;73.69
80139;BME280;69467;59.842;17.604;2023-04-24T11:18:20;100331.22;;;4.79;74.15
80139;BME280;69467;59.842;17.604;2023-04-24T11:20:47;100340.41;;;4.66;74.01
80139;BME280;69467;59.842;17.604;2023-04-24T11:23:13;100345.47;;;4.62;74.31
80139;BME280;69467;59.842;17.604;2023-04-24T11:25:39;100338.28;;;4.56;74.47
80139;BME280;69467;59.842;17.604;2023-04-24T11:28:05;100345.66;;;4.49;75.13
80139;BME280;69467;59.842;17.604;2023-04-24T11:30:32;100346.66;;;4.55;75.18
80139;BME280;69467;59.842;17.604;2023-04-24T11:33:04;100354.31;;;4.58;75.54
80139;BME280;69467;59.842;17.604;2023-04-24T11:35:35;100359.72;;;4.58;75.00
80139;BME280;69467;59.842;17.604;2023-04-24T11:38:02;100353.38;;;4.64;74.59
80139;BME280;69467;59.842;17.604;2023-04-24T11:40:28;100357.56;;;4.48;75.21
80139;BME280;69467;59.842;17.604;2023-04-24T11:42:54;100355.91;;;4.47;75.39
80139;BME280;69467;59.842;17.604;2023-04-24T11:45:26;100364.03;;;4.47;75.20
80139;BME280;69467;59.842;17.604;2023-04-24T11:47:52;100359.22;;;4.49;75.13
80139;BME280;69467;59.842;17.604;2023-04-24T11:50:19;100353.56;;;4.50;75.22
80139;BME280;69467;59.842;17.604;2023-04-24T11:52:46;100353.50;;;4.57;75.06
80139;BME280;69467;59.842;17.604;2023-04-24T11:57:50;100343.50;;;4.70;75.15
80139;BME280;69467;59.842;17.604;2023-04-24T12:00:22;100331.72;;;4.76;74.35
80139;BME280;69467;59.842;17.604;2023-04-24T12:02:49;100328.06;;;4.82;74.57
80139;BME280;69467;59.842;17.604;2023-04-24T12:05:27;100329.13;;;4.81;74.03
80139;BME280;69467;59.842;17.604;2023-04-24T12:07:53;100325.47;;;4.87;74.06
80139;BME280;69467;59.842;17.604;2023-04-24T12:10:26;100334.56;;;4.93;74.18
80139;BME280;69467;59.842;17.604;2023-04-24T12:12:52;100337.06;;;4.94;74.25
80139;BME280;69467;59.842;17.604;2023-04-24T12:15:19;100338.34;;;4.92;74.30
80139;BME280;69467;59.842;17.604;2023-04-24T12:17:45;100347.31;;;4.92;73.78
80139;BME280;69467;59.842;17.604;2023-04-24T12:20:11;100350.50;;;4.89;73.60
80139;BME280;69467;59.842;17.604;2023-04-24T12:22:49;100345.78;;;4.96;73.34
80139;BME280;69467;59.842;17.604;2023-04-24T12:25:17;100359.81;;;4.93;73.34
80139;BME280;69467;59.842;17.604;2023-04-24T12:27:46;100353.78;;;4.91;73.35
80139;BME280;69467;59.842;17.604;2023-04-24T12:30:16;100345.28;;;4.88;73.31
80139;BME280;69467;59.842;17.604;2023-04-24T12:32:49;100350.59;;;4.82;73.11
80139;BME280;69467;59.842;17.604;2023-04-24T12:35:27;100348.84;;;4.88;73.99
80139;BME280;69467;59.842;17.604;2023-04-24T12:37:53;100346.38;;;4.87;73.87
80139;BME280;69467;59.842;17.604;2023-04-24T12:40:21;100336.31;;;4.87;73.57
80139;BME280;69467;59.842;17.604;2023-04-24T12:42:49;100339.41;;;4.91;73.59
80139;BME280;69467;59.842;17.604;2023-04-24T12:45:15;100340.81;;;4.93;73.58
80139;BME280;69467;59.842;17.604;2023-04-24T12:47:42;100325.72;;;4.97;73.40
80139;BME280;69467;59.842;17.604;2023-04-24T12:50:08;100320.16;;;4.92;73.46
80139;BME280;69467;59.842;17.604;2023-04-24T12:52:34;100319.22;;;4.98;73.17
80139;BME280;69467;59.842;17.604;2023-04-24T12:55:00;100326.78;;;4.96;73.61